sensor_id;sensor_type;location;lat;lon;timestamp;pressure;altitude;pressure_sealevel;temperature;humidity
73952;BME280;62304;47.662;18.324;2022-12-29T00:01:52;100812.12;;;3.57;73.70
73952;BME280;62304;47.662;18.324;2022-12-29T00:04:56;100820.16;;;3.53;74.04
73952;BME280;62304;47.662;18.324;2022-12-29T00:07:59;100808.00;;;3.46;74.16
73952;BME280;62304;47.662;18.324;2022-12-29T00:11:03;100807.81;;;3.42;74.74
73952;BME280;62304;47.662;18.324;2022-12-29T00:14:09;100806.81;;;3.38;74.79
73952;BME280;62304;47.662;18.324;2022-12-29T00:17:31;100805.19;;;3.37;74.94
73952;BME280;62304;47.662;18.324;2022-12-29T00:20:35;100805.19;;;3.37;75.13
73952;BME280;62304;47.662;18.324;2022-12-29T00:23:57;100797.81;;;3.38;75.36
73952;BME280;62304;47.662;18.324;2022-12-29T00:27:31;100790.72;;;3.37;75.45
73952;BME280;62304;47.662;18.324;2022-12-29T00:30:53;100796.31;;;3.32;75.87
73952;BME280;62304;47.662;18.324;2022-12-29T00:34:15;100784.22;;;3.33;75.73
73952;BME280;62304;47.662;18.324;2022-12-29T00:37:39;100783.28;;;3.37;75.74
73952;BME280;62304;47.662;18.324;2022-12-29T00:41:02;100789.41;;;3.34;76.29
73952;BME280;62304;47.662;18.324;2022-12-29T00:44:24;100786.19;;;3.41;75.72
73952;BME280;62304;47.662;18.324;2022-12-29T00:47:28;100783.16;;;3.42;75.93
73952;BME280;62304;47.662;18.324;2022-12-29T00:50:32;100781.41;;;3.46;76.26
73952;BME280;62304;47.662;18.324;2022-12-29T00:53:35;100790.75;;;3.45;75.94
73952;BME280;62304;47.662;18.324;2022-12-29T00:56:39;100796.31;;;3.54;76.12
73952;BME280;62304;47.662;18.324;2022-12-29T00:59:42;100810.88;;;3.63;76.19
73952;BME280;62304;47.662;18.324;2022-12-29T01:02:46;100793.50;;;3.67;76.02
73952;BME280;62304;47.662;18.324;2022-12-29T01:05:51;100799.47;;;3.69;76.03
73952;BME280;62304;47.662;18.324;2022-12-29T01:08:55;100803.81;;;3.70;75.99
73952;BME280;62304;47.662;18.324;2022-12-29T01:12:17;100803.81;;;3.70;76.09
73952;BME280;62304;47.662;18.324;2022-12-29T01:15:49;100818.66;;;3.69;76.18
73952;BME280;62304;47.662;18.324;2022-12-29T01:18:53;100818.47;;;3.66;76.50
73952;BME280;62304;47.662;18.324;2022-12-29T01:21:56;100812.63;;;3.59;76.72
73952;BME280;62304;47.662;18.324;2022-12-29T01:25:00;100822.78;;;3.58;76.90
73952;BME280;62304;47.662;18.324;2022-12-29T01:28:03;100812.94;;;3.57;77.06
73952;BME280;62304;47.662;18.324;2022-12-29T01:31:12;100812.00;;;3.62;77.07
73952;BME280;62304;47.662;18.324;2022-12-29T01:34:16;100810.81;;;3.54;77.13
73952;BME280;62304;47.662;18.324;2022-12-29T01:37:20;100812.44;;;3.55;77.26
73952;BME280;62304;47.662;18.324;2022-12-29T01:40:24;100801.28;;;3.52;77.39
73952;BME280;62304;47.662;18.324;2022-12-29T01:43:47;100800.66;;;3.55;77.74
73952;BME280;62304;47.662;18.324;2022-12-29T01:46:51;100789.50;;;3.51;77.81
73952;BME280;62304;47.662;18.324;2022-12-29T01:49:58;100782.53;;;3.45;78.05
73952;BME280;62304;47.662;18.324;2022-12-29T01:53:08;100786.91;;;3.46;78.11
73952;BME280;62304;47.662;18.324;2022-12-29T01:56:15;100769.97;;;3.44;78.23
73952;BME280;62304;47.662;18.324;2022-12-29T01:59:22;100768.69;;;3.50;78.59
73952;BME280;62304;47.662;18.324;2022-12-29T02:02:28;100764.31;;;3.49;78.36
73952;BME280;62304;47.662;18.324;2022-12-29T02:05:47;100764.84;;;3.51;78.45
73952;BME280;62304;47.662;18.324;2022-12-29T02:08:55;100767.75;;;3.55;78.73
73952;BME280;62304;47.662;18.324;2022-12-29T02:11:59;100767.81;;;3.63;78.64
73952;BME280;62304;47.662;18.324;2022-12-29T02:15:04;100765.06;;;3.63;78.49
73952;BME280;62304;47.662;18.324;2022-12-29T02:18:29;100750.88;;;3.61;78.73
73952;BME280;62304;47.662;18.324;2022-12-29T02:25:44;100753.66;;;3.70;78.78
73952;BME280;62304;47.662;18.324;2022-12-29T02:36:18;100740.72;;;3.70;78.90
73952;BME280;62304;47.662;18.324;2022-12-29T02:42:50;100735.75;;;3.72;79.28
73952;BME280;62304;47.662;18.324;2022-12-29T02:47:03;100735.75;;;3.72;79.36
73952;BME280;62304;47.662;18.324;2022-12-29T02:49:46;100733.19;;;3.76;79.38
73952;BME280;62304;47.662;18.324;2022-12-29T02:52:59;100731.22;;;3.76;79.53
73952;BME280;62304;47.662;18.324;2022-12-29T02:56:03;100723.88;;;3.85;79.66
73952;BME280;62304;47.662;18.324;2022-12-29T02:59:07;100722.91;;;3.90;79.71
73952;BME280;62304;47.662;18.324;2022-12-29T03:06:27;100702.75;;;3.94;79.72
73952;BME280;62304;47.662;18.324;2022-12-29T03:16:53;100704.25;;;4.00;79.97
73952;BME280;62304;47.662;18.324;2022-12-29T03:20:03;100695.22;;;4.08;79.91
73952;BME280;62304;47.662;18.324;2022-12-29T03:23:10;100698.47;;;4.19;79.82
73952;BME280;62304;47.662;18.324;2022-12-29T03:26:16;100692.66;;;4.29;79.79
73952;BME280;62304;47.662;18.324;2022-12-29T03:29:22;100698.37;;;4.41;79.50
73952;BME280;62304;47.662;18.324;2022-12-29T03:32:57;100694.31;;;4.38;79.43
73952;BME280;62304;47.662;18.324;2022-12-29T03:36:08;100691.06;;;4.36;79.62
73952;BME280;62304;47.662;18.324;2022-12-29T03:39:13;100695.78;;;4.36;79.59
73952;BME280;62304;47.662;18.324;2022-12-29T03:42:20;100695.59;;;4.32;79.62
73952;BME280;62304;47.662;18.324;2022-12-29T03:45:26;100688.00;;;4.29;79.72
73952;BME280;62304;47.662;18.324;2022-12-29T03:52:38;100691.56;;;4.30;79.75
73952;BME280;62304;47.662;18.324;2022-12-29T03:55:41;100694.94;;;4.35;79.78
73952;BME280;62304;47.662;18.324;2022-12-29T03:58:45;100690.91;;;4.33;79.78
73952;BME280;62304;47.662;18.324;2022-12-29T04:01:48;100687.69;;;4.31;79.90
73952;BME280;62304;47.662;18.324;2022-12-29T04:04:52;100685.72;;;4.23;79.97
73952;BME280;62304;47.662;18.324;2022-12-29T04:07:55;100681.19;;;4.18;80.21
73952;BME280;62304;47.662;18.324;2022-12-29T04:10:58;100683.78;;;4.15;80.25
73952;BME280;62304;47.662;18.324;2022-12-29T04:14:01;100679.06;;;4.15;80.21
73952;BME280;62304;47.662;18.324;2022-12-29T04:17:05;100684.91;;;4.14;80.08
73952;BME280;62304;47.662;18.324;2022-12-29T04:20:09;100671.16;;;4.05;80.26
73952;BME280;62304;47.662;18.324;2022-12-29T04:23:48;100679.41;;;4.05;80.25
73952;BME280;62304;47.662;18.324;2022-12-29T04:26:51;100677.28;;;4.11;80.15
73952;BME280;62304;47.662;18.324;2022-12-29T04:29:55;100681.47;;;4.08;80.02
73952;BME280;62304;47.662;18.324;2022-12-29T04:32:59;100695.03;;;4.05;80.12
73952;BME280;62304;47.662;18.324;2022-12-29T04:36:03;100695.69;;;4.02;79.99
73952;BME280;62304;47.662;18.324;2022-12-29T04:39:06;100698.25;;;3.98;80.02
73952;BME280;62304;47.662;18.324;2022-12-29T04:42:10;100695.28;;;3.86;80.40
73952;BME280;62304;47.662;18.324;2022-12-29T04:45:14;100702.88;;;3.81;80.34
73952;BME280;62304;47.662;18.324;2022-12-29T04:48:17;100695.72;;;3.71;80.41
73952;BME280;62304;47.662;18.324;2022-12-29T04:51:20;100697.44;;;3.59;80.64
73952;BME280;62304;47.662;18.324;2022-12-29T04:54:24;100698.37;;;3.54;80.73
73952;BME280;62304;47.662;18.324;2022-12-29T04:57:29;100693.97;;;3.45;81.03
73952;BME280;62304;47.662;18.324;2022-12-29T05:00:33;100684.56;;;3.37;81.05
73952;BME280;62304;47.662;18.324;2022-12-29T05:03:37;100688.28;;;3.33;81.44
73952;BME280;62304;47.662;18.324;2022-12-29T05:06:40;100694.37;;;3.30;81.62
73952;BME280;62304;47.662;18.324;2022-12-29T05:09:43;100686.97;;;3.30;81.43
73952;BME280;62304;47.662;18.324;2022-12-29T05:12:47;100685.34;;;3.29;81.86
73952;BME280;62304;47.662;18.324;2022-12-29T05:15:52;100686.47;;;3.28;81.94
73952;BME280;62304;47.662;18.324;2022-12-29T05:18:56;100686.91;;;3.22;82.03
73952;BME280;62304;47.662;18.324;2022-12-29T05:21:59;100686.09;;;3.21;82.33
73952;BME280;62304;47.662;18.324;2022-12-29T05:25:04;100683.03;;;3.23;82.26
73952;BME280;62304;47.662;18.324;2022-12-29T05:28:08;100677.87;;;3.21;82.34
73952;BME280;62304;47.662;18.324;2022-12-29T05:31:12;100682.03;;;3.19;82.31
73952;BME280;62304;47.662;18.324;2022-12-29T05:34:15;100678.50;;;3.18;82.45
73952;BME280;62304;47.662;18.324;2022-12-29T05:37:20;100686.75;;;3.18;82.49
73952;BME280;62304;47.662;18.324;2022-12-29T05:40:23;100686.22;;;3.16;82.58
73952;BME280;62304;47.662;18.324;2022-12-29T05:43:29;100681.56;;;3.17;82.50
73952;BME280;62304;47.662;18.324;2022-12-29T05:46:33;100681.88;;;3.15;82.56
73952;BME280;62304;47.662;18.324;2022-12-29T05:49:37;100685.75;;;3.14;82.72
73952;BME280;62304;47.662;18.324;2022-12-29T05:52:40;100693.34;;;3.17;82.76
73952;BME280;62304;47.662;18.324;2022-12-29T05:55:44;100688.47;;;3.14;82.58
73952;BME280;62304;47.662;18.324;2022-12-29T05:58:50;100679.25;;;3.10;82.63
73952;BME280;62304;47.662;18.324;2022-12-29T06:01:54;100683.44;;;3.08;82.67
73952;BME280;62304;47.662;18.324;2022-12-29T06:04:57;100674.06;;;3.00;82.74
73952;BME280;62304;47.662;18.324;2022-12-29T06:08:00;100672.41;;;2.99;82.74
73952;BME280;62304;47.662;18.324;2022-12-29T06:11:05;100681.56;;;2.95;82.84
73952;BME280;62304;47.662;18.324;2022-12-29T06:14:08;100687.47;;;2.88;82.94
73952;BME280;62304;47.662;18.324;2022-12-29T06:17:12;100685.88;;;2.87;82.89
73952;BME280;62304;47.662;18.324;2022-12-29T06:20:15;100678.16;;;2.89;82.84
73952;BME280;62304;47.662;18.324;2022-12-29T06:23:19;100683.12;;;2.87;82.85
73952;BME280;62304;47.662;18.324;2022-12-29T06:26:22;100683.25;;;2.82;82.90
73952;BME280;62304;47.662;18.324;2022-12-29T06:29:26;100687.47;;;2.88;83.08
73952;BME280;62304;47.662;18.324;2022-12-29T06:32:30;100681.50;;;2.86;83.04
73952;BME280;62304;47.662;18.324;2022-12-29T06:35:35;100692.16;;;2.88;83.08
73952;BME280;62304;47.662;18.324;2022-12-29T06:38:38;100702.81;;;2.89;83.21
73952;BME280;62304;47.662;18.324;2022-12-29T06:41:42;100700.69;;;2.86;83.21
73952;BME280;62304;47.662;18.324;2022-12-29T06:44:46;100706.59;;;2.80;83.47
73952;BME280;62304;47.662;18.324;2022-12-29T06:47:49;100706.53;;;2.71;83.59
73952;BME280;62304;47.662;18.324;2022-12-29T06:50:52;100708.13;;;2.72;83.77
73952;BME280;62304;47.662;18.324;2022-12-29T06:53:56;100711.69;;;2.73;84.06
73952;BME280;62304;47.662;18.324;2022-12-29T06:56:59;100717.66;;;2.75;83.85
73952;BME280;62304;47.662;18.324;2022-12-29T07:00:04;100719.78;;;2.78;83.68
73952;BME280;62304;47.662;18.324;2022-12-29T07:03:08;100718.37;;;2.80;83.68
73952;BME280;62304;47.662;18.324;2022-12-29T07:06:12;100730.22;;;2.89;83.38
73952;BME280;62304;47.662;18.324;2022-12-29T07:09:16;100722.38;;;2.96;83.25
73952;BME280;62304;47.662;18.324;2022-12-29T07:12:19;100725.00;;;3.01;83.09
73952;BME280;62304;47.662;18.324;2022-12-29T07:15:22;100727.28;;;3.08;82.88
73952;BME280;62304;47.662;18.324;2022-12-29T07:18:25;100724.59;;;3.16;82.70
73952;BME280;62304;47.662;18.324;2022-12-29T07:21:28;100726.22;;;3.17;82.63
73952;BME280;62304;47.662;18.324;2022-12-29T07:24:32;100725.03;;;3.32;82.34
73952;BME280;62304;47.662;18.324;2022-12-29T07:27:35;100723.00;;;3.46;81.68
73952;BME280;62304;47.662;18.324;2022-12-29T07:30:39;100729.38;;;3.55;81.24
73952;BME280;62304;47.662;18.324;2022-12-29T07:33:42;100720.19;;;3.59;81.17
73952;BME280;62304;47.662;18.324;2022-12-29T07:36:46;100732.31;;;3.67;80.88
73952;BME280;62304;47.662;18.324;2022-12-29T07:39:49;100724.13;;;3.75;80.60
73952;BME280;62304;47.662;18.324;2022-12-29T07:42:52;100730.06;;;3.99;79.92
73952;BME280;62304;47.662;18.324;2022-12-29T07:46:00;100729.88;;;3.96;79.99
73952;BME280;62304;47.662;18.324;2022-12-29T07:49:04;100712.75;;;3.90;80.21
73952;BME280;62304;47.662;18.324;2022-12-29T07:52:06;100716.97;;;3.96;80.12
73952;BME280;62304;47.662;18.324;2022-12-29T07:55:10;100718.87;;;3.96;80.06
73952;BME280;62304;47.662;18.324;2022-12-29T07:58:13;100718.25;;;3.99;79.95
73952;BME280;62304;47.662;18.324;2022-12-29T08:01:17;100725.06;;;4.01;79.94
73952;BME280;62304;47.662;18.324;2022-12-29T08:04:21;100726.38;;;4.12;79.72
73952;BME280;62304;47.662;18.324;2022-12-29T08:07:25;100718.34;;;4.24;79.36
73952;BME280;62304;47.662;18.324;2022-12-29T08:10:28;100716.62;;;4.45;78.93
73952;BME280;62304;47.662;18.324;2022-12-29T08:13:31;100712.91;;;4.58;78.76
73952;BME280;62304;47.662;18.324;2022-12-29T08:16:35;100704.03;;;4.70;78.11
73952;BME280;62304;47.662;18.324;2022-12-29T08:19:38;100701.47;;;4.73;77.85
73952;BME280;62304;47.662;18.324;2022-12-29T08:22:42;100697.91;;;4.90;77.27
73952;BME280;62304;47.662;18.324;2022-12-29T08:33:20;100697.84;;;5.32;76.54
73952;BME280;62304;47.662;18.324;2022-12-29T08:36:23;100688.00;;;5.77;75.20
73952;BME280;62304;47.662;18.324;2022-12-29T08:39:26;100684.16;;;6.07;73.67
73952;BME280;62304;47.662;18.324;2022-12-29T08:42:31;100690.59;;;6.40;72.35
73952;BME280;62304;47.662;18.324;2022-12-29T08:45:34;100689.56;;;6.53;71.46
73952;BME280;62304;47.662;18.324;2022-12-29T08:48:38;100706.91;;;6.95;70.29
73952;BME280;62304;47.662;18.324;2022-12-29T08:51:41;100708.19;;;7.30;69.81
73952;BME280;62304;47.662;18.324;2022-12-29T08:54:45;100694.53;;;7.78;67.52
73952;BME280;62304;47.662;18.324;2022-12-29T08:57:48;100694.00;;;8.20;65.87
73952;BME280;62304;47.662;18.324;2022-12-29T09:00:56;100685.69;;;8.56;65.09
73952;BME280;62304;47.662;18.324;2022-12-29T09:03:59;100684.78;;;8.80;63.86
73952;BME280;62304;47.662;18.324;2022-12-29T09:07:18;100684.63;;;9.00;62.78
73952;BME280;62304;47.662;18.324;2022-12-29T09:10:21;100676.12;;;9.21;62.86
73952;BME280;62304;47.662;18.324;2022-12-29T09:13:24;100685.63;;;9.35;61.21
73952;BME280;62304;47.662;18.324;2022-12-29T09:16:27;100682.62;;;9.71;61.42
73952;BME280;62304;47.662;18.324;2022-12-29T09:19:31;100681.84;;;9.86;60.58
73952;BME280;62304;47.662;18.324;2022-12-29T09:22:35;100673.97;;;8.87;62.81
73952;BME280;62304;47.662;18.324;2022-12-29T09:25:39;100664.97;;;9.76;60.78
73952;BME280;62304;47.662;18.324;2022-12-29T09:28:42;100670.97;;;10.09;60.15
73952;BME280;62304;47.662;18.324;2022-12-29T09:31:47;100669.09;;;10.63;58.47
73952;BME280;62304;47.662;18.324;2022-12-29T09:34:50;100667.78;;;10.76;58.17
73952;BME280;62304;47.662;18.324;2022-12-29T09:37:53;100666.41;;;10.85;57.34
73952;BME280;62304;47.662;18.324;2022-12-29T09:41:06;100666.88;;;11.48;56.72
73952;BME280;62304;47.662;18.324;2022-12-29T09:47:18;100661.19;;;11.60;55.56
73952;BME280;62304;47.662;18.324;2022-12-29T09:50:28;100662.91;;;11.07;55.89
73952;BME280;62304;47.662;18.324;2022-12-29T09:53:42;100667.47;;;11.38;55.60
73952;BME280;62304;47.662;18.324;2022-12-29T09:56:48;100661.03;;;11.34;55.37
73952;BME280;62304;47.662;18.324;2022-12-29T10:00:03;100653.47;;;11.72;54.85
73952;BME280;62304;47.662;18.324;2022-12-29T10:03:15;100646.31;;;11.11;55.04
73952;BME280;62304;47.662;18.324;2022-12-29T10:06:25;100643.63;;;10.95;56.60
73952;BME280;62304;47.662;18.324;2022-12-29T10:20:10;100643.03;;;11.88;53.53
73952;BME280;62304;47.662;18.324;2022-12-29T10:23:26;100633.03;;;11.84;53.51
73952;BME280;62304;47.662;18.324;2022-12-29T10:26:38;100616.97;;;11.74;54.23
73952;BME280;62304;47.662;18.324;2022-12-29T10:29:51;100610.16;;;12.46;52.38
73952;BME280;62304;47.662;18.324;2022-12-29T10:33:03;100611.72;;;12.17;51.89
73952;BME280;62304;47.662;18.324;2022-12-29T10:36:18;100607.81;;;12.22;52.42
73952;BME280;62304;47.662;18.324;2022-12-29T10:39:35;100616.34;;;12.62;50.77
73952;BME280;62304;47.662;18.324;2022-12-29T10:42:43;100608.78;;;12.07;52.22
73952;BME280;62304;47.662;18.324;2022-12-29T10:45:48;100611.69;;;11.91;52.93
73952;BME280;62304;47.662;18.324;2022-12-29T10:48:52;100607.56;;;12.04;51.77
73952;BME280;62304;47.662;18.324;2022-12-29T10:51:58;100614.09;;;12.15;52.11
73952;BME280;62304;47.662;18.324;2022-12-29T10:58:12;100596.44;;;12.30;51.75
73952;BME280;62304;47.662;18.324;2022-12-29T11:01:17;100589.63;;;12.87;50.19
73952;BME280;62304;47.662;18.324;2022-12-29T11:08:04;100610.06;;;12.68;50.85
73952;BME280;62304;47.662;18.324;2022-12-29T11:11:11;100614.69;;;12.57;50.28
73952;BME280;62304;47.662;18.324;2022-12-29T11:14:19;100606.69;;;12.85;50.72
73952;BME280;62304;47.662;18.324;2022-12-29T11:17:24;100613.63;;;12.39;51.04
73952;BME280;62304;47.662;18.324;2022-12-29T11:20:33;100593.16;;;12.51;51.61
73952;BME280;62304;47.662;18.324;2022-12-29T11:23:41;100609.34;;;12.45;50.24
73952;BME280;62304;47.662;18.324;2022-12-29T11:26:44;100607.13;;;12.28;51.18
73952;BME280;62304;47.662;18.324;2022-12-29T11:29:52;100597.16;;;11.11;54.28
73952;BME280;62304;47.662;18.324;2022-12-29T11:32:57;100592.19;;;12.40;52.21
73952;BME280;62304;47.662;18.324;2022-12-29T11:36:13;100581.09;;;13.02;49.67
73952;BME280;62304;47.662;18.324;2022-12-29T11:39:37;100580.00;;;12.22;51.64
73952;BME280;62304;47.662;18.324;2022-12-29T11:42:54;100590.38;;;12.25;51.78
73952;BME280;62304;47.662;18.324;2022-12-29T11:45:59;100582.13;;;10.74;55.02
73952;BME280;62304;47.662;18.324;2022-12-29T11:49:13;100572.22;;;11.79;52.91
73952;BME280;62304;47.662;18.324;2022-12-29T11:52:23;100560.53;;;12.22;52.48
73952;BME280;62304;47.662;18.324;2022-12-29T11:55:28;100567.53;;;11.60;53.75
73952;BME280;62304;47.662;18.324;2022-12-29T11:58:34;100565.00;;;12.89;50.51
73952;BME280;62304;47.662;18.324;2022-12-29T12:01:40;100565.75;;;12.86;50.14
73952;BME280;62304;47.662;18.324;2022-12-29T12:04:45;100563.50;;;12.95;49.85
73952;BME280;62304;47.662;18.324;2022-12-29T12:08:00;100564.78;;;13.41;48.95
73952;BME280;62304;47.662;18.324;2022-12-29T12:14:43;100554.31;;;12.61;50.48
73952;BME280;62304;47.662;18.324;2022-12-29T12:17:56;100551.88;;;13.22;49.07
73952;BME280;62304;47.662;18.324;2022-12-29T12:21:13;100550.84;;;13.41;48.99
73952;BME280;62304;47.662;18.324;2022-12-29T12:24:32;100548.94;;;13.48;49.12
73952;BME280;62304;47.662;18.324;2022-12-29T12:27:46;100548.59;;;13.13;50.12
73952;BME280;62304;47.662;18.324;2022-12-29T12:30:55;100548.09;;;13.44;48.60
73952;BME280;62304;47.662;18.324;2022-12-29T12:34:04;100543.16;;;13.27;48.75
73952;BME280;62304;47.662;18.324;2022-12-29T12:41:11;100544.84;;;12.99;49.88
73952;BME280;62304;47.662;18.324;2022-12-29T12:44:35;100550.13;;;12.74;50.71
73952;BME280;62304;47.662;18.324;2022-12-29T12:47:52;100543.41;;;11.90;51.87
73952;BME280;62304;47.662;18.324;2022-12-29T12:51:21;100543.88;;;11.96;52.43
73952;BME280;62304;47.662;18.324;2022-12-29T12:54:46;100528.66;;;13.08;49.36
73952;BME280;62304;47.662;18.324;2022-12-29T12:58:00;100535.41;;;13.50;48.25
73952;BME280;62304;47.662;18.324;2022-12-29T13:04:42;100533.22;;;12.93;49.07
73952;BME280;62304;47.662;18.324;2022-12-29T13:11:10;100540.62;;;11.90;52.26
73952;BME280;62304;47.662;18.324;2022-12-29T13:17:57;100553.06;;;12.26;50.98
73952;BME280;62304;47.662;18.324;2022-12-29T13:31:37;100531.25;;;10.86;55.57
73952;BME280;62304;47.662;18.324;2022-12-29T13:37:52;100552.75;;;11.56;53.17
73952;BME280;62304;47.662;18.324;2022-12-29T13:41:02;100560.41;;;11.18;56.05
73952;BME280;62304;47.662;18.324;2022-12-29T13:44:10;100560.97;;;10.47;56.08
73952;BME280;62304;47.662;18.324;2022-12-29T13:47:36;100571.03;;;9.86;57.70
73952;BME280;62304;47.662;18.324;2022-12-29T13:50:41;100559.84;;;8.90;60.94
73952;BME280;62304;47.662;18.324;2022-12-29T13:57:14;100570.25;;;8.02;64.60
73952;BME280;62304;47.662;18.324;2022-12-29T14:00:35;100571.31;;;7.49;67.39
73952;BME280;62304;47.662;18.324;2022-12-29T14:03:47;100565.34;;;7.47;67.54
73952;BME280;62304;47.662;18.324;2022-12-29T14:07:06;100564.50;;;7.35;67.04
73952;BME280;62304;47.662;18.324;2022-12-29T14:10:35;100564.12;;;7.12;68.63
73952;BME280;62304;47.662;18.324;2022-12-29T14:13:41;100568.25;;;7.06;67.84
73952;BME280;62304;47.662;18.324;2022-12-29T14:16:45;100554.66;;;6.89;70.69
73952;BME280;62304;47.662;18.324;2022-12-29T14:19:52;100569.47;;;6.85;70.39
73952;BME280;62304;47.662;18.324;2022-12-29T14:23:46;100569.22;;;6.78;68.07
73952;BME280;62304;47.662;18.324;2022-12-29T14:26:42;100565.41;;;6.70;70.63
73952;BME280;62304;47.662;18.324;2022-12-29T14:29:50;100558.91;;;6.54;71.71
73952;BME280;62304;47.662;18.324;2022-12-29T14:33:12;100569.88;;;6.42;71.80
73952;BME280;62304;47.662;18.324;2022-12-29T14:39:34;100595.72;;;6.29;71.73
73952;BME280;62304;47.662;18.324;2022-12-29T14:42:38;100591.75;;;6.18;71.83
73952;BME280;62304;47.662;18.324;2022-12-29T14:45:42;100586.66;;;6.08;72.62
73952;BME280;62304;47.662;18.324;2022-12-29T14:48:56;100590.47;;;5.95;73.17
73952;BME280;62304;47.662;18.324;2022-12-29T14:52:15;100591.84;;;5.81;74.75
73952;BME280;62304;47.662;18.324;2022-12-29T14:55:44;100596.41;;;5.68;75.24
73952;BME280;62304;47.662;18.324;2022-12-29T15:02:04;100593.00;;;5.42;75.50
73952;BME280;62304;47.662;18.324;2022-12-29T15:05:52;100592.72;;;5.27;76.05
73952;BME280;62304;47.662;18.324;2022-12-29T15:09:04;100584.53;;;5.01;77.75
73952;BME280;62304;47.662;18.324;2022-12-29T15:12:38;100597.69;;;4.87;77.75
73952;BME280;62304;47.662;18.324;2022-12-29T15:15:44;100599.94;;;4.77;78.10
73952;BME280;62304;47.662;18.324;2022-12-29T15:18:48;100599.97;;;4.68;78.17
73952;BME280;62304;47.662;18.324;2022-12-29T15:21:53;100605.16;;;4.53;79.05
73952;BME280;62304;47.662;18.324;2022-12-29T15:24:57;100601.59;;;4.44;79.25
73952;BME280;62304;47.662;18.324;2022-12-29T15:28:03;100604.81;;;4.37;79.37
73952;BME280;62304;47.662;18.324;2022-12-29T15:31:15;100612.09;;;4.33;78.82
73952;BME280;62304;47.662;18.324;2022-12-29T15:34:20;100617.44;;;4.21;81.44
73952;BME280;62304;47.662;18.324;2022-12-29T15:37:32;100611.94;;;4.21;80.66
73952;BME280;62304;47.662;18.324;2022-12-29T15:40:36;100600.28;;;4.16;80.64
73952;BME280;62304;47.662;18.324;2022-12-29T15:44:10;100598.66;;;4.06;81.56
73952;BME280;62304;47.662;18.324;2022-12-29T15:47:21;100591.88;;;4.04;79.23
73952;BME280;62304;47.662;18.324;2022-12-29T15:50:30;100592.84;;;3.99;81.15
73952;BME280;62304;47.662;18.324;2022-12-29T15:53:34;100594.78;;;3.99;81.18
73952;BME280;62304;47.662;18.324;2022-12-29T15:56:37;100594.16;;;4.02;80.60
73952;BME280;62304;47.662;18.324;2022-12-29T15:59:46;100587.53;;;4.03;80.71
73952;BME280;62304;47.662;18.324;2022-12-29T16:02:49;100601.25;;;4.03;80.43
73952;BME280;62304;47.662;18.324;2022-12-29T16:05:55;100594.16;;;4.10;79.69
73952;BME280;62304;47.662;18.324;2022-12-29T16:09:02;100592.69;;;4.04;80.03
73952;BME280;62304;47.662;18.324;2022-12-29T16:12:13;100606.06;;;3.97;80.42
73952;BME280;62304;47.662;18.324;2022-12-29T16:15:19;100608.94;;;3.84;81.03
73952;BME280;62304;47.662;18.324;2022-12-29T16:18:36;100602.72;;;3.44;82.63
73952;BME280;62304;47.662;18.324;2022-12-29T16:21:40;100605.94;;;3.46;82.50
73952;BME280;62304;47.662;18.324;2022-12-29T16:24:45;100603.53;;;3.53;81.89
73952;BME280;62304;47.662;18.324;2022-12-29T16:27:48;100613.22;;;3.59;81.81
73952;BME280;62304;47.662;18.324;2022-12-29T16:31:06;100603.09;;;3.68;81.44
73952;BME280;62304;47.662;18.324;2022-12-29T16:34:23;100599.87;;;3.66;81.08
73952;BME280;62304;47.662;18.324;2022-12-29T16:40:32;100604.19;;;3.50;81.30
73952;BME280;62304;47.662;18.324;2022-12-29T16:43:36;100615.34;;;3.62;81.47
73952;BME280;62304;47.662;18.324;2022-12-29T16:50:18;100619.00;;;3.49;81.53
73952;BME280;62304;47.662;18.324;2022-12-29T16:53:41;100622.56;;;3.50;81.36
73952;BME280;62304;47.662;18.324;2022-12-29T16:56:50;100621.25;;;3.47;81.38
73952;BME280;62304;47.662;18.324;2022-12-29T16:59:59;100622.31;;;3.29;82.52
73952;BME280;62304;47.662;18.324;2022-12-29T17:03:05;100620.91;;;3.40;81.70
73952;BME280;62304;47.662;18.324;2022-12-29T17:06:17;100613.31;;;3.07;82.41
73952;BME280;62304;47.662;18.324;2022-12-29T17:09:26;100621.34;;;3.03;82.66
73952;BME280;62304;47.662;18.324;2022-12-29T17:12:35;100614.62;;;3.09;82.64
73952;BME280;62304;47.662;18.324;2022-12-29T17:15:42;100621.38;;;2.81;84.46
73952;BME280;62304;47.662;18.324;2022-12-29T17:18:47;100612.56;;;2.84;83.89
73952;BME280;62304;47.662;18.324;2022-12-29T17:21:53;100608.91;;;2.97;83.40
73952;BME280;62304;47.662;18.324;2022-12-29T17:24:58;100610.88;;;3.05;83.00
73952;BME280;62304;47.662;18.324;2022-12-29T17:28:21;100599.09;;;2.74;84.44
73952;BME280;62304;47.662;18.324;2022-12-29T17:31:25;100589.16;;;2.56;85.27
73952;BME280;62304;47.662;18.324;2022-12-29T17:34:29;100587.78;;;2.45;85.62
73952;BME280;62304;47.662;18.324;2022-12-29T17:37:35;100590.78;;;2.79;84.21
73952;BME280;62304;47.662;18.324;2022-12-29T17:40:38;100577.88;;;2.58;85.75
73952;BME280;62304;47.662;18.324;2022-12-29T17:43:41;100585.66;;;2.64;84.71
73952;BME280;62304;47.662;18.324;2022-12-29T17:46:47;100587.25;;;2.87;83.89
73952;BME280;62304;47.662;18.324;2022-12-29T17:49:50;100585.16;;;2.84;83.61
73952;BME280;62304;47.662;18.324;2022-12-29T17:52:56;100591.31;;;2.90;83.97
73952;BME280;62304;47.662;18.324;2022-12-29T17:56:02;100578.31;;;2.95;83.64
73952;BME280;62304;47.662;18.324;2022-12-29T17:59:11;100571.28;;;3.11;82.66
73952;BME280;62304;47.662;18.324;2022-12-29T18:02:24;100572.25;;;3.15;82.56
73952;BME280;62304;47.662;18.324;2022-12-29T18:05:29;100582.38;;;3.06;82.83
73952;BME280;62304;47.662;18.324;2022-12-29T18:08:37;100574.94;;;3.07;82.91